METAR / TAF

LSZC – Buochs

METAR LSZC 251420Z VRB02KT 9999 OVC065 20/16 Q1013

TAF Specified parameters

LSMA – Alpnach Mil

METAR LSMA 251420Z VRB02KT 9999NDV BKN068 19/16 Q1013 RESHRA RMK

TAF LSMA 250925Z 2510/2616 08008KT 9999 SCT015 BKN025 TEMPO 2510/2518 SHRA FEW050TCU PROB40 TEMPO 2510/2515 27012G25KT 3000 TSRA SCT040CB PROB30 TEMPO 2609/2616 4500 SHRA FEW050TCU PROB30 TEMPO 2611/2616 25012KT 4000 TSRA SCT040CB

LSME – Emmen Mil

METAR LSME 251420Z 00000KT 9999NDV FEW009 BKN016 BKN080 19/17 Q1013 RESHRA RMK

TAF LSME 250925Z 2510/2616 VRB02KT 9999 SCT020 BKN025 TEMPO 2510/2517 SHRA FEW050TCU PROB40 TEMPO 2511/2516 27012G25KT 3000 TSRA SCT040CB PROB30 2602/2606 3000 MIFG PROB40 TEMPO 2610/2616 4500 SHRA FEW050TCU PROB30 TEMPO 2611/2616 4000 TSRA SCT045CB

LSZH – Zurich

METAR LSZH 251420Z VRB03KT 8000 -SHRA FEW012 SCT030CB BKN045 18/17 Q1013 RESHRA NOSIG

TAF LSZH 251425Z 2515/2621 VRB02KT 9999 FEW010 SCT050 TX22/2515Z TN15/2604Z TX24/2615Z TEMPO 2602/2606 3000 MIFG TEMPO 2612/2621 4500 SHRA FEW050TCU PROB30 TEMPO 2613/2615 27012G25KT 3000 TSRA SCT040CB

LSZB – Bern

METAR LSZB 251420Z VRB02KT 9999 FEW029 SCT085 22/16 Q1012 NOSIG

TAF LSZB 251425Z 2515/2524 VRB02KT 9999 FEW020 SCT050

LFSB – Bale

METAR LFSB 251430Z 05004KT 010V080 9999 SHRA FEW033CB SCT033 SCT080 24/16 Q1011 NOSIG

TAF LFSB 251100Z 2512/2612 15004KT 9999 SCT020 BKN070 PROB40 TEMPO 2512/2521 4000 SHRA SCT030CB PROB30 TEMPO 2512/2517 2000 TSRA PROB30 TEMPO 2602/2605 3000 BR

Radar

Föhn diagram

From an air pressure difference of approx. 4 hPa (dashed line) between the northern and southern Alps, Föhn can occur. The higher the pressure difference, the more violent the Föhn!

Forecast

Privacy Settings
We use cookies to enhance your experience while using our website. If you are using our Services via a browser you can restrict, block or remove cookies through your web browser settings. We also use content and scripts from third parties that may use tracking technologies. You can selectively provide your consent below to allow such third party embeds. For complete information about the cookies we use, data we collect and how we process them, please check our Privacy Policy
Youtube
Consent to display content from Youtube
Vimeo
Consent to display content from Vimeo
Google Maps
Consent to display content from Google